createdAt,value
2022-12-25T00:01:08.675Z,75.65
2022-12-25T00:03:36.971Z,75.71
2022-12-25T00:06:04.021Z,75.73
2022-12-25T00:08:31.147Z,75.67
2022-12-25T00:11:11.489Z,75.71
2022-12-25T00:13:38.649Z,75.71
2022-12-25T00:16:11.534Z,75.74
2022-12-25T00:18:38.374Z,75.72
2022-12-25T00:21:06.999Z,75.71
2022-12-25T00:23:35.157Z,75.73
2022-12-25T00:26:11.029Z,75.79
2022-12-25T00:28:38.015Z,75.75
2022-12-25T00:31:14.286Z,75.68
2022-12-25T00:33:43.420Z,75.42
2022-12-25T00:36:11.901Z,75.38
2022-12-25T00:38:40.346Z,75.36
2022-12-25T00:41:12.932Z,75.34
2022-12-25T00:43:41.862Z,75.42
2022-12-25T00:46:10.489Z,75.23
2022-12-25T00:48:38.288Z,75.20
2022-12-25T00:51:07.713Z,75.19
2022-12-25T00:53:34.549Z,75.16
2022-12-25T00:56:05.336Z,75.16
2022-12-25T00:58:33.597Z,75.12
2022-12-25T01:01:00.987Z,75.19
2022-12-25T01:03:28.524Z,75.08
2022-12-25T01:06:00.953Z,75.09
2022-12-25T01:08:30.844Z,75.03
2022-12-25T01:11:08.564Z,75.05
2022-12-25T01:13:37.188Z,75.19
2022-12-25T01:16:11.421Z,75.17
2022-12-25T01:18:39.000Z,75.16
2022-12-25T01:21:10.382Z,75.16
2022-12-25T01:23:37.871Z,75.15
2022-12-25T01:26:06.560Z,75.14
2022-12-25T01:28:33.412Z,75.17
2022-12-25T01:31:00.273Z,75.13
2022-12-25T01:33:27.284Z,75.09
2022-12-25T01:35:54.275Z,75.01
2022-12-25T01:38:21.885Z,75.06
2022-12-25T01:40:48.731Z,74.98
2022-12-25T01:43:27.207Z,74.96
2022-12-25T01:45:54.272Z,74.94
2022-12-25T01:48:25.598Z,74.94
2022-12-25T01:50:59.361Z,74.91
2022-12-25T01:53:26.890Z,74.93
2022-12-25T01:56:01.135Z,74.91
2022-12-25T01:58:29.158Z,74.96
2022-12-25T02:00:56.048Z,74.96
2022-12-25T02:03:23.838Z,74.94
2022-12-25T02:05:51.136Z,74.97
2022-12-25T02:08:20.716Z,74.93
2022-12-25T02:10:47.920Z,74.90
2022-12-25T02:13:18.307Z,74.90
2022-12-25T02:16:13.392Z,74.88
2022-12-25T02:19:01.089Z,74.86
2022-12-25T02:21:36.985Z,74.82
2022-12-25T02:24:22.397Z,74.79
2022-12-25T02:26:51.890Z,74.78
2022-12-25T02:29:42.567Z,74.81
2022-12-25T02:33:20.252Z,74.76
2022-12-25T02:35:52.431Z,74.71
2022-12-25T02:38:33.987Z,74.68
2022-12-25T02:41:09.652Z,74.61
2022-12-25T02:44:02.462Z,74.61
2022-12-25T02:46:51.519Z,74.67
2022-12-25T02:49:42.328Z,74.70
2022-12-25T02:52:31.456Z,74.62
2022-12-25T02:55:23.883Z,74.59
2022-12-25T02:58:13.010Z,74.62
2022-12-25T03:01:03.172Z,74.61
2022-12-25T03:03:52.061Z,74.62
2022-12-25T03:06:39.155Z,74.60
2022-12-25T03:09:27.474Z,74.61
2022-12-25T03:12:13.419Z,74.57
2022-12-25T03:14:58.802Z,74.59
2022-12-25T03:17:25.829Z,74.57
2022-12-25T03:20:11.289Z,74.52
2022-12-25T03:22:57.807Z,74.51
2022-12-25T03:25:43.281Z,74.58
2022-12-25T03:28:10.120Z,74.60
2022-12-25T03:31:13.299Z,74.61
2022-12-25T03:34:38.228Z,74.70
2022-12-25T03:37:07.595Z,74.65
2022-12-25T03:39:49.597Z,74.66
2022-12-25T03:42:39.502Z,74.64
2022-12-25T03:45:31.023Z,74.62
2022-12-25T03:48:13.190Z,74.50
2022-12-25T03:51:12.391Z,74.45
2022-12-25T03:54:05.544Z,74.68
2022-12-25T03:56:52.797Z,74.71
2022-12-25T03:59:40.240Z,74.77
2022-12-25T04:02:25.942Z,74.76
2022-12-25T04:05:11.606Z,74.75
2022-12-25T04:07:57.453Z,74.78
2022-12-25T04:10:42.949Z,74.75
2022-12-25T04:13:29.043Z,74.78
2022-12-25T04:16:14.690Z,75.08
2022-12-25T04:19:00.442Z,75.15
2022-12-25T04:21:45.781Z,75.14
2022-12-25T04:24:31.505Z,75.09
2022-12-25T04:27:17.336Z,75.42
2022-12-25T04:30:02.986Z,75.47
2022-12-25T04:32:48.098Z,75.49
2022-12-25T04:35:33.907Z,75.50
2022-12-25T04:38:00.757Z,75.64
2022-12-25T04:40:27.790Z,75.71
2022-12-25T04:42:54.659Z,75.55
2022-12-25T04:45:21.439Z,75.31
2022-12-25T04:47:48.344Z,75.29
2022-12-25T04:50:15.275Z,75.30
2022-12-25T04:52:42.346Z,75.31
2022-12-25T04:55:11.246Z,75.28
2022-12-25T04:57:38.498Z,75.27
2022-12-25T05:00:06.904Z,75.27
2022-12-25T05:02:33.966Z,75.25
2022-12-25T05:05:01.011Z,75.23
2022-12-25T05:07:27.827Z,75.19
2022-12-25T05:09:54.651Z,75.46
2022-12-25T05:12:21.498Z,75.60
2022-12-25T05:14:48.280Z,75.66
2022-12-25T05:17:15.131Z,75.67
2022-12-25T05:19:42.858Z,75.72
2022-12-25T05:22:09.783Z,75.75
2022-12-25T05:24:36.616Z,75.72
2022-12-25T05:27:03.500Z,75.72
2022-12-25T05:29:30.347Z,75.69
2022-12-25T05:31:57.168Z,75.68
2022-12-25T05:34:24.036Z,75.74
2022-12-25T05:36:50.852Z,75.76
2022-12-25T05:39:17.722Z,75.59
2022-12-25T05:41:44.601Z,75.61
2022-12-25T05:44:12.578Z,75.62
2022-12-25T05:46:39.962Z,75.76
2022-12-25T05:49:06.852Z,75.83
2022-12-25T05:51:33.716Z,75.90
2022-12-25T05:54:00.575Z,75.85
2022-12-25T05:56:27.438Z,75.85
2022-12-25T05:58:54.912Z,75.84
2022-12-25T06:01:24.804Z,75.67
2022-12-25T06:03:52.119Z,75.76
2022-12-25T06:06:19.260Z,75.89
2022-12-25T06:08:46.302Z,75.93
2022-12-25T06:11:14.116Z,75.95
2022-12-25T06:13:41.445Z,75.99
2022-12-25T06:16:11.163Z,76.02
2022-12-25T06:18:44.462Z,76.07
2022-12-25T06:21:13.330Z,76.09
2022-12-25T06:23:40.317Z,76.11
2022-12-25T06:26:13.978Z,76.11
2022-12-25T06:28:41.032Z,76.26
2022-12-25T06:31:20.738Z,76.25
2022-12-25T06:33:48.412Z,76.23
2022-12-25T06:36:18.586Z,76.34
2022-12-25T06:38:45.678Z,76.35
2022-12-25T06:41:18.631Z,76.42
2022-12-25T06:43:54.693Z,76.54
2022-12-25T06:46:23.093Z,76.61
2022-12-25T06:48:50.300Z,76.64
2022-12-25T06:51:19.855Z,76.67
2022-12-25T06:53:47.625Z,76.71
2022-12-25T06:56:17.982Z,76.77
2022-12-25T06:58:50.470Z,76.85
2022-12-25T07:01:22.231Z,76.93
2022-12-25T07:03:51.966Z,76.96
2022-12-25T07:06:19.147Z,77.08
2022-12-25T07:08:46.012Z,77.20
2022-12-25T07:11:13.248Z,77.24
2022-12-25T07:13:40.176Z,77.34
2022-12-25T07:16:07.897Z,77.38
2022-12-25T07:18:35.308Z,77.44
2022-12-25T07:21:07.140Z,77.50
2022-12-25T07:23:34.176Z,77.54
2022-12-25T07:26:02.417Z,77.66
2022-12-25T07:28:30.291Z,77.68
2022-12-25T07:31:05.328Z,77.71
2022-12-25T07:33:32.568Z,77.77
2022-12-25T07:35:59.876Z,77.76
2022-12-25T07:38:27.055Z,77.76
2022-12-25T07:40:54.031Z,77.51
2022-12-25T07:43:21.059Z,77.73
2022-12-25T07:45:48.184Z,77.77
2022-12-25T07:48:16.790Z,77.61
2022-12-25T07:50:43.987Z,77.64
2022-12-25T07:53:10.861Z,77.46
2022-12-25T07:55:37.684Z,77.55
2022-12-25T07:58:07.037Z,77.60
2022-12-25T08:00:34.193Z,77.57
2022-12-25T08:03:01.338Z,77.57
2022-12-25T08:05:28.224Z,77.56
2022-12-25T08:07:58.002Z,77.51
2022-12-25T08:10:25.154Z,77.33
2022-12-25T08:12:52.174Z,77.36
2022-12-25T08:15:19.048Z,77.44
2022-12-25T08:17:46.242Z,77.48
2022-12-25T08:20:13.748Z,77.47
2022-12-25T08:22:40.599Z,77.43
2022-12-25T08:25:07.880Z,77.40
2022-12-25T08:27:34.861Z,77.38
2022-12-25T08:30:01.633Z,77.32
2022-12-25T08:32:28.464Z,77.33
2022-12-25T08:34:55.239Z,77.29
2022-12-25T08:37:22.023Z,77.22
2022-12-25T08:39:48.873Z,77.23
2022-12-25T08:42:15.682Z,77.27
2022-12-25T08:44:42.644Z,77.24
2022-12-25T08:47:09.450Z,76.90
2022-12-25T08:49:36.816Z,76.90
2022-12-25T08:52:03.802Z,76.83
2022-12-25T08:54:32.595Z,76.82
2022-12-25T08:57:03.035Z,76.79
2022-12-25T08:59:30.238Z,76.69
2022-12-25T09:01:57.052Z,76.66
2022-12-25T09:04:23.898Z,76.62
2022-12-25T09:06:51.160Z,76.68
2022-12-25T09:09:17.955Z,76.72
2022-12-25T09:11:44.833Z,76.90
2022-12-25T09:14:13.819Z,77.16
2022-12-25T09:16:40.720Z,77.28
2022-12-25T09:19:07.572Z,77.33
2022-12-25T09:21:36.799Z,77.43
2022-12-25T09:24:04.844Z,77.50
2022-12-25T09:26:31.779Z,77.59
2022-12-25T09:28:58.650Z,77.69
2022-12-25T09:31:25.566Z,77.55
2022-12-25T09:33:56.859Z,77.40
2022-12-25T09:36:24.267Z,77.34
2022-12-25T09:38:51.433Z,77.57
2022-12-25T09:41:50.274Z,77.60
2022-12-25T09:44:22.792Z,77.60
2022-12-25T09:47:03.849Z,77.59
2022-12-25T09:50:00.048Z,77.51
2022-12-25T09:52:37.677Z,77.45
2022-12-25T09:55:20.500Z,77.30
2022-12-25T09:58:01.726Z,77.22
2022-12-25T10:00:36.066Z,77.13
2022-12-25T10:03:27.951Z,77.05
2022-12-25T10:06:13.343Z,76.99
2022-12-25T10:08:57.931Z,76.95
2022-12-25T10:11:52.498Z,76.92
2022-12-25T10:14:48.890Z,76.87
2022-12-25T10:17:42.831Z,76.84
2022-12-25T10:20:25.926Z,76.76
2022-12-25T10:23:02.188Z,76.79
2022-12-25T10:25:30.029Z,76.77
2022-12-25T10:28:11.890Z,76.73
2022-12-25T10:30:42.821Z,76.74
2022-12-25T10:33:16.852Z,76.73
2022-12-25T10:35:44.967Z,76.74
2022-12-25T10:38:17.762Z,76.74
2022-12-25T10:40:56.795Z,76.72
2022-12-25T10:43:45.767Z,76.73
2022-12-25T10:46:15.584Z,76.67
2022-12-25T10:48:58.812Z,76.60
2022-12-25T10:51:30.833Z,76.63
2022-12-25T10:53:57.725Z,76.64
2022-12-25T10:56:24.655Z,76.66
2022-12-25T10:58:51.469Z,76.66
2022-12-25T11:01:18.467Z,76.64
2022-12-25T11:03:51.294Z,76.69
2022-12-25T11:06:29.372Z,76.71
2022-12-25T11:09:02.195Z,76.70
2022-12-25T11:11:30.215Z,76.66
2022-12-25T11:14:02.864Z,76.70
2022-12-25T11:16:36.550Z,76.69
2022-12-25T11:19:04.371Z,76.70
2022-12-25T11:21:36.685Z,76.69
2022-12-25T11:24:17.966Z,76.68
2022-12-25T11:26:53.521Z,76.68
2022-12-25T11:29:38.365Z,76.68
2022-12-25T11:32:12.927Z,76.69
2022-12-25T11:34:49.687Z,76.66
2022-12-25T11:37:39.824Z,76.67
2022-12-25T11:40:13.842Z,76.38
2022-12-25T11:42:45.935Z,76.58
2022-12-25T11:45:20.932Z,76.61
2022-12-25T11:48:07.356Z,76.60
2022-12-25T11:50:41.987Z,76.49
2022-12-25T11:53:20.425Z,76.57
2022-12-25T11:55:55.025Z,76.64
2022-12-25T11:58:40.595Z,76.66
2022-12-25T12:01:45.421Z,76.69
2022-12-25T12:04:42.601Z,76.75
2022-12-25T12:07:12.870Z,76.72
2022-12-25T12:10:10.580Z,76.72
2022-12-25T12:12:52.381Z,76.72
2022-12-25T12:15:19.137Z,76.72
2022-12-25T12:17:45.966Z,76.76
2022-12-25T12:20:34.610Z,76.80
2022-12-25T12:23:10.900Z,76.81
2022-12-25T12:25:44.693Z,76.77
2022-12-25T12:28:22.663Z,76.71
2022-12-25T12:31:08.892Z,76.69
2022-12-25T12:33:41.452Z,76.76
2022-12-25T12:36:13.705Z,76.75
2022-12-25T12:38:43.625Z,76.70
2022-12-25T12:41:13.925Z,76.74
2022-12-25T12:43:43.139Z,76.73
2022-12-25T12:46:27.921Z,76.75
2022-12-25T12:49:20.489Z,76.79
2022-12-25T12:51:47.333Z,76.71
2022-12-25T12:54:24.308Z,76.65
2022-12-25T12:57:01.582Z,76.69
2022-12-25T12:59:39.065Z,76.65
2022-12-25T13:02:06.825Z,76.60
2022-12-25T13:05:03.869Z,76.58
2022-12-25T13:07:45.216Z,76.57
2022-12-25T13:10:32.651Z,76.58
2022-12-25T13:13:10.984Z,76.61
2022-12-25T13:15:39.106Z,76.58
2022-12-25T13:18:10.114Z,76.54
2022-12-25T13:20:58.259Z,76.45
2022-12-25T13:23:32.476Z,76.36
2022-12-25T13:26:14.887Z,76.38
2022-12-25T13:28:41.727Z,76.40
2022-12-25T13:31:23.936Z,76.44
2022-12-25T13:33:58.214Z,76.47
2022-12-25T13:36:27.304Z,76.49
2022-12-25T13:38:57.604Z,76.50
2022-12-25T13:42:04.590Z,76.54
2022-12-25T13:44:39.559Z,76.56
2022-12-25T13:47:20.113Z,76.58
2022-12-25T13:49:48.240Z,76.43
2022-12-25T13:52:18.951Z,76.35
2022-12-25T13:54:57.214Z,76.32
2022-12-25T13:57:37.561Z,76.55
2022-12-25T14:00:16.390Z,76.58
2022-12-25T14:02:43.362Z,76.54
2022-12-25T14:05:22.263Z,76.55
2022-12-25T14:07:53.582Z,76.57
2022-12-25T14:10:25.943Z,76.50
2022-12-25T14:12:56.293Z,76.54
2022-12-25T14:15:24.057Z,76.53
2022-12-25T14:17:51.727Z,76.51
2022-12-25T14:20:30.162Z,76.49
2022-12-25T14:22:59.759Z,76.50
2022-12-25T14:25:33.500Z,76.47
2022-12-25T14:28:05.910Z,76.43
2022-12-25T14:30:33.145Z,76.36
2022-12-25T14:33:02.678Z,76.20
2022-12-25T14:35:29.635Z,76.09
2022-12-25T14:38:00.214Z,76.05
2022-12-25T14:40:30.999Z,76.04
2022-12-25T14:43:00.405Z,76.05
2022-12-25T14:45:35.782Z,76.06
2022-12-25T14:48:22.875Z,76.09
2022-12-25T14:50:58.462Z,76.18
2022-12-25T14:53:35.630Z,76.28
2022-12-25T14:56:02.874Z,76.34
2022-12-25T14:58:32.868Z,76.39
2022-12-25T15:01:05.040Z,76.43
2022-12-25T15:03:41.085Z,76.44
2022-12-25T15:06:19.872Z,76.49
2022-12-25T15:09:06.405Z,76.54
2022-12-25T15:11:33.242Z,76.53
2022-12-25T15:14:00.120Z,76.56
2022-12-25T15:16:31.091Z,76.79
2022-12-25T15:19:00.565Z,77.01
2022-12-25T15:21:33.069Z,77.08
2022-12-25T15:24:00.513Z,77.14
2022-12-25T15:26:29.100Z,77.26
2022-12-25T15:28:55.894Z,77.32
2022-12-25T15:31:31.030Z,77.46
2022-12-25T15:34:00.380Z,77.57
2022-12-25T15:36:28.151Z,77.66
2022-12-25T15:38:56.124Z,77.75
2022-12-25T15:41:44.427Z,77.80
2022-12-25T15:44:12.562Z,77.92
2022-12-25T15:46:39.493Z,78.07
2022-12-25T15:49:06.352Z,78.19
2022-12-25T15:51:33.587Z,78.34
2022-12-25T15:54:00.390Z,78.32
2022-12-25T15:56:28.095Z,78.47
2022-12-25T15:58:55.399Z,78.40
2022-12-25T16:01:22.337Z,78.46
2022-12-25T16:03:49.285Z,78.56
2022-12-25T16:06:18.483Z,78.54
2022-12-25T16:08:45.910Z,78.54
2022-12-25T16:11:12.823Z,78.53
2022-12-25T16:13:39.654Z,78.58
2022-12-25T16:16:07.052Z,78.63
2022-12-25T16:18:34.047Z,78.74
2022-12-25T16:21:00.849Z,78.80
2022-12-25T16:23:27.828Z,78.67
2022-12-25T16:25:54.641Z,78.70
2022-12-25T16:28:21.419Z,78.81
2022-12-25T16:30:48.479Z,78.93
2022-12-25T16:33:15.611Z,79.05
2022-12-25T16:35:42.486Z,79.10
2022-12-25T16:38:09.362Z,79.14
2022-12-25T16:40:36.193Z,79.15
2022-12-25T16:43:03.199Z,79.14
2022-12-25T16:45:29.984Z,79.12
2022-12-25T16:47:57.505Z,79.04
2022-12-25T16:50:24.357Z,78.87
2022-12-25T16:52:51.451Z,78.67
2022-12-25T16:55:18.535Z,78.59
2022-12-25T16:57:48.452Z,78.51
2022-12-25T17:00:15.690Z,78.48
2022-12-25T17:02:42.659Z,78.48
2022-12-25T17:05:10.158Z,78.68
2022-12-25T17:07:37.744Z,78.83
2022-12-25T17:10:06.015Z,78.91
2022-12-25T17:12:34.061Z,78.96
2022-12-25T17:15:00.849Z,78.90
2022-12-25T17:17:27.788Z,78.62
2022-12-25T17:19:54.582Z,78.48
2022-12-25T17:22:21.445Z,78.35
2022-12-25T17:24:48.293Z,78.24
2022-12-25T17:27:15.111Z,78.10
2022-12-25T17:29:43.937Z,78.00
2022-12-25T17:32:12.296Z,77.87
2022-12-25T17:34:39.042Z,77.82
2022-12-25T17:37:06.403Z,77.77
2022-12-25T17:39:33.327Z,77.78
2022-12-25T17:42:00.179Z,77.72
2022-12-25T17:44:27.392Z,77.69
2022-12-25T17:46:54.513Z,77.66
2022-12-25T17:49:22.409Z,77.67
2022-12-25T17:51:49.376Z,77.64
2022-12-25T17:54:16.220Z,77.64
2022-12-25T17:56:43.041Z,77.65
2022-12-25T17:59:18.121Z,77.66
2022-12-25T18:01:46.251Z,77.67
2022-12-25T18:04:13.257Z,77.66
2022-12-25T18:06:40.080Z,77.69
2022-12-25T18:09:07.345Z,77.75
2022-12-25T18:11:36.940Z,77.79
2022-12-25T18:14:05.732Z,77.76
2022-12-25T18:16:36.033Z,77.69
2022-12-25T18:19:03.542Z,77.75
2022-12-25T18:21:30.824Z,77.75
2022-12-25T18:23:58.101Z,77.76
2022-12-25T18:26:26.053Z,77.75
2022-12-25T18:28:52.970Z,77.74
2022-12-25T18:31:23.387Z,77.76
2022-12-25T18:33:51.556Z,77.75
2022-12-25T18:36:21.564Z,77.72
2022-12-25T18:38:49.314Z,77.78
2022-12-25T18:41:16.492Z,77.78
2022-12-25T18:43:52.654Z,77.81
2022-12-25T18:46:27.453Z,77.89
2022-12-25T18:48:56.193Z,77.91
2022-12-25T18:51:24.211Z,77.91
2022-12-25T18:53:51.440Z,77.95
2022-12-25T18:56:19.297Z,77.96
2022-12-25T18:58:47.173Z,77.90
2022-12-25T19:01:20.342Z,77.87
2022-12-25T19:03:49.131Z,77.85
2022-12-25T19:06:18.424Z,77.84
2022-12-25T19:08:45.896Z,77.84
2022-12-25T19:11:12.870Z,77.87
2022-12-25T19:13:39.801Z,77.85
2022-12-25T19:16:07.238Z,77.85
2022-12-25T19:18:34.312Z,77.81
2022-12-25T19:21:06.538Z,77.86
2022-12-25T19:23:34.465Z,77.88
2022-12-25T19:26:04.965Z,77.88
2022-12-25T19:28:31.767Z,77.90
2022-12-25T19:31:02.652Z,77.84
2022-12-25T19:33:31.598Z,77.82
2022-12-25T19:36:04.230Z,77.87
2022-12-25T19:38:31.359Z,77.95
2022-12-25T19:41:01.560Z,77.92
2022-12-25T19:43:30.193Z,78.00
2022-12-25T19:45:57.691Z,78.00
2022-12-25T19:48:25.093Z,78.02
2022-12-25T19:50:52.810Z,78.07
2022-12-25T19:53:23.269Z,78.07
2022-12-25T19:55:52.418Z,77.92
2022-12-25T19:58:20.917Z,77.92
2022-12-25T20:01:18.543Z,77.93
2022-12-25T20:03:46.640Z,77.93
2022-12-25T20:06:19.838Z,77.88
2022-12-25T20:08:48.248Z,77.87
2022-12-25T20:11:16.211Z,77.89
2022-12-25T20:13:43.875Z,77.85
2022-12-25T20:16:11.784Z,77.83
2022-12-25T20:18:40.119Z,77.81
2022-12-25T20:21:11.652Z,77.81
2022-12-25T20:23:38.891Z,77.78
2022-12-25T20:26:06.176Z,77.71
2022-12-25T20:28:35.262Z,77.71
2022-12-25T20:31:06.791Z,77.73
2022-12-25T20:33:34.761Z,77.67
2022-12-25T20:36:03.594Z,77.71
2022-12-25T20:38:30.632Z,77.70
2022-12-25T20:41:26.363Z,77.78
2022-12-25T20:43:53.066Z,77.77
2022-12-25T20:46:20.351Z,77.71
2022-12-25T20:48:47.433Z,77.64
2022-12-25T20:51:16.958Z,77.63
2022-12-25T20:53:44.814Z,77.60
2022-12-25T20:56:14.038Z,77.56
2022-12-25T20:58:41.493Z,77.65
2022-12-25T21:01:12.961Z,77.63
2022-12-25T21:03:40.786Z,77.64
2022-12-25T21:06:08.811Z,77.69
2022-12-25T21:08:36.792Z,77.74
2022-12-25T21:11:04.581Z,77.76
2022-12-25T21:13:34.207Z,77.76
2022-12-25T21:16:01.262Z,77.84
2022-12-25T21:18:28.484Z,77.83
2022-12-25T21:20:58.006Z,77.82
2022-12-25T21:23:28.112Z,77.87
2022-12-25T21:25:55.007Z,77.85
2022-12-25T21:28:23.246Z,77.83
2022-12-25T21:30:50.378Z,77.86
2022-12-25T21:33:35.807Z,77.92
2022-12-25T21:36:10.766Z,77.95
2022-12-25T21:38:38.713Z,77.99
2022-12-25T21:41:08.479Z,77.99
2022-12-25T21:43:37.530Z,78.07
2022-12-25T21:46:06.272Z,78.17
2022-12-25T21:48:34.811Z,78.20
2022-12-25T21:51:25.619Z,78.23
2022-12-25T21:53:52.603Z,78.25
2022-12-25T21:56:19.466Z,78.30
2022-12-25T21:58:47.287Z,78.30
2022-12-25T22:01:16.953Z,78.31
2022-12-25T22:03:44.736Z,78.33
2022-12-25T22:06:30.857Z,78.33
2022-12-25T22:08:57.647Z,78.36
2022-12-25T22:11:54.691Z,78.36
2022-12-25T22:14:51.731Z,78.39
2022-12-25T22:17:41.965Z,78.37
2022-12-25T22:20:12.449Z,78.31
2022-12-25T22:22:39.218Z,78.28
2022-12-25T22:25:06.972Z,78.29
2022-12-25T22:27:36.535Z,78.32
2022-12-25T22:30:05.150Z,78.32
2022-12-25T22:32:32.007Z,78.35
2022-12-25T22:34:58.885Z,78.35
2022-12-25T22:37:25.944Z,78.36
2022-12-25T22:39:52.722Z,78.50
2022-12-25T22:42:19.719Z,78.38
2022-12-25T22:44:47.544Z,78.39
2022-12-25T22:47:14.333Z,78.40
2022-12-25T22:49:41.259Z,78.37
2022-12-25T22:52:09.865Z,78.37
2022-12-25T22:54:37.432Z,78.36
2022-12-25T22:57:04.648Z,78.38
2022-12-25T22:59:33.016Z,78.53
2022-12-25T23:02:00.960Z,78.59
2022-12-25T23:04:28.917Z,78.60
2022-12-25T23:06:56.261Z,78.59
2022-12-25T23:09:27.698Z,78.57
2022-12-25T23:11:58.893Z,78.44
2022-12-25T23:14:38.854Z,78.14
2022-12-25T23:17:30.545Z,78.13
2022-12-25T23:20:17.299Z,78.06
2022-12-25T23:23:02.943Z,78.15
2022-12-25T23:25:48.844Z,78.35
2022-12-25T23:28:35.717Z,78.44
2022-12-25T23:31:02.723Z,78.46
2022-12-25T23:33:29.650Z,78.48
2022-12-25T23:35:56.548Z,78.46
2022-12-25T23:38:23.371Z,78.43
2022-12-25T23:40:50.210Z,78.49
2022-12-25T23:43:17.019Z,78.47
2022-12-25T23:45:43.813Z,78.45
2022-12-25T23:48:10.664Z,78.43
2022-12-25T23:50:40.464Z,78.43
2022-12-25T23:53:07.323Z,78.35
2022-12-25T23:55:34.400Z,78.35
2022-12-25T23:58:01.254Z,78.32
